createdAt,value
2022-08-12T00:00:00.802Z,6.80
2022-08-12T00:02:46.447Z,6.43
2022-08-12T00:05:33.650Z,6.30
2022-08-12T00:08:28.659Z,6.60
2022-08-12T00:11:21.360Z,6.30
2022-08-12T00:14:06.672Z,6.50
2022-08-12T00:16:54.048Z,6.13
2022-08-12T00:19:39.354Z,6.10
2022-08-12T00:22:26.171Z,6.13
2022-08-12T00:25:17.007Z,5.70
2022-08-12T00:28:02.699Z,5.90
2022-08-12T00:30:48.348Z,6.40
2022-08-12T00:33:38.594Z,6.47
2022-08-12T00:36:43.643Z,6.30
2022-08-12T00:39:30.899Z,6.47
2022-08-12T00:42:11.086Z,6.67
2022-08-12T00:44:43.237Z,7.00
2022-08-12T00:47:24.657Z,6.40
2022-08-12T00:49:55.741Z,6.57
2022-08-12T00:52:25.265Z,6.10
2022-08-12T00:54:57.046Z,6.90
2022-08-12T00:57:27.322Z,6.40
2022-08-12T00:59:57.887Z,6.67
2022-08-12T01:02:27.759Z,7.37
2022-08-12T01:05:16.202Z,7.00
2022-08-12T01:08:03.570Z,7.67
2022-08-12T01:10:51.440Z,6.23
2022-08-12T01:13:20.701Z,6.90
2022-08-12T01:15:51.393Z,6.90
2022-08-12T01:18:21.292Z,6.40
2022-08-12T01:21:00.514Z,5.77
2022-08-12T01:23:52.148Z,6.20
2022-08-12T01:26:24.404Z,6.83
2022-08-12T01:28:58.667Z,6.53
2022-08-12T01:31:29.294Z,6.37
2022-08-12T01:34:04.548Z,6.53
2022-08-12T01:36:40.746Z,6.97
2022-08-12T01:39:10.128Z,6.20
2022-08-12T01:41:44.893Z,6.07
2022-08-12T01:44:22.955Z,6.63
2022-08-12T01:47:05.780Z,7.13
2022-08-12T01:49:51.653Z,9.50
2022-08-12T01:52:38.584Z,8.07
2022-08-12T01:55:08.184Z,7.90
2022-08-12T01:57:59.209Z,8.50
2022-08-12T02:00:44.937Z,7.57
2022-08-12T02:04:01.775Z,7.20
2022-08-12T02:06:56.123Z,6.97
2022-08-12T02:10:00.207Z,6.97
2022-08-12T02:12:48.462Z,6.90
2022-08-12T02:15:28.683Z,7.13
2022-08-12T02:18:12.717Z,8.77
2022-08-12T02:20:52.762Z,6.90
2022-08-12T02:23:27.049Z,6.60
2022-08-12T02:25:59.458Z,6.40
2022-08-12T02:28:29.165Z,7.17
2022-08-12T02:31:02.873Z,6.67
2022-08-12T02:33:31.629Z,5.73
2022-08-12T02:36:01.922Z,5.00
2022-08-12T02:38:32.297Z,4.77
2022-08-12T02:41:04.865Z,5.17
2022-08-12T02:43:38.398Z,4.93
2022-08-12T02:46:13.755Z,5.50
2022-08-12T02:48:47.225Z,7.40
2022-08-12T02:51:19.436Z,5.10
2022-08-12T02:54:03.316Z,5.30
2022-08-12T02:56:37.651Z,5.70
2022-08-12T02:59:12.281Z,6.00
2022-08-12T03:01:47.891Z,5.33
2022-08-12T03:04:24.465Z,6.10
2022-08-12T03:07:02.153Z,7.30
2022-08-12T03:09:53.525Z,6.00
2022-08-12T03:12:25.297Z,6.13
2022-08-12T03:14:56.225Z,6.80
2022-08-12T03:17:30.461Z,5.93
2022-08-12T03:20:10.104Z,6.60
2022-08-12T03:22:40.824Z,6.43
2022-08-12T03:25:17.225Z,6.57
2022-08-12T03:27:49.840Z,6.40
2022-08-12T03:30:20.735Z,6.90
2022-08-12T03:32:50.787Z,8.43
2022-08-12T03:35:40.894Z,7.57
2022-08-12T03:38:16.265Z,7.97
2022-08-12T03:41:15.365Z,8.17
2022-08-12T03:44:10.674Z,8.60
2022-08-12T03:47:00.714Z,8.90
2022-08-12T03:49:46.390Z,9.23
2022-08-12T03:52:31.823Z,9.40
2022-08-12T03:55:17.510Z,9.53
2022-08-12T03:58:03.218Z,9.67
2022-08-12T04:00:31.946Z,9.67
2022-08-12T04:03:01.970Z,9.67
2022-08-12T04:05:54.694Z,9.90
2022-08-12T04:08:22.552Z,10.10
2022-08-12T04:11:08.217Z,9.80
2022-08-12T04:13:36.147Z,10.30
2022-08-12T04:16:07.940Z,12.37
2022-08-12T04:18:38.804Z,13.43
2022-08-12T04:21:10.373Z,13.10
2022-08-12T04:23:47.677Z,12.67
2022-08-12T04:26:16.640Z,11.57
2022-08-12T04:28:44.892Z,12.57
2022-08-12T04:31:14.234Z,14.30
2022-08-12T04:33:44.148Z,14.40
2022-08-12T04:36:12.168Z,14.40
2022-08-12T04:38:40.116Z,15.50
2022-08-12T04:41:10.888Z,15.33
2022-08-12T04:43:54.489Z,15.63
2022-08-12T04:46:33.526Z,15.50
2022-08-12T04:49:05.156Z,16.20
2022-08-12T04:51:34.190Z,15.30
2022-08-12T04:54:03.067Z,19.33
2022-08-12T04:56:35.397Z,16.77
2022-08-12T04:59:04.987Z,17.33
2022-08-12T05:01:32.908Z,17.37
2022-08-12T05:04:02.874Z,17.10
2022-08-12T05:06:32.781Z,16.37
2022-08-12T05:09:01.412Z,16.30
2022-08-12T05:11:29.439Z,18.40
2022-08-12T05:14:00.163Z,16.80
2022-08-12T05:16:32.413Z,16.63
2022-08-12T05:19:02.437Z,15.10
2022-08-12T05:21:32.021Z,18.17
2022-08-12T05:24:00.101Z,18.07
2022-08-12T05:26:29.452Z,16.03
2022-08-12T05:28:57.390Z,15.27
2022-08-12T05:31:47.486Z,14.87
2022-08-12T05:34:15.638Z,18.53
2022-08-12T05:36:45.096Z,15.83
2022-08-12T05:39:13.269Z,16.20
2022-08-12T05:41:41.836Z,16.40
2022-08-12T05:44:12.714Z,16.90
2022-08-12T05:46:41.229Z,16.23
2022-08-12T05:49:10.035Z,15.37
2022-08-12T05:51:40.762Z,16.07
2022-08-12T05:54:12.237Z,16.13
2022-08-12T05:56:41.633Z,17.27
2022-08-12T05:59:12.141Z,18.13
2022-08-12T06:02:11.407Z,17.43
2022-08-12T06:04:29.745Z,15.77
2022-08-12T06:06:57.880Z,14.00
2022-08-12T06:09:28.706Z,16.07
2022-08-12T06:12:06.248Z,18.63
2022-08-12T06:14:37.765Z,16.47
2022-08-12T06:17:08.648Z,16.87
2022-08-12T06:20:26.632Z,15.23
2022-08-12T06:22:24.535Z,17.50
2022-08-12T06:24:53.983Z,15.90
2022-08-12T06:27:22.073Z,15.68
2022-08-12T06:30:10.253Z,16.83
2022-08-12T06:32:42.731Z,15.20
2022-08-12T06:35:23.027Z,14.40
2022-08-12T06:37:57.632Z,15.95
2022-08-12T06:40:46.226Z,13.55
2022-08-12T06:43:14.301Z,19.83
2022-08-12T06:45:47.349Z,13.20
2022-08-12T06:48:16.502Z,12.15
2022-08-12T06:50:46.087Z,12.63
2022-08-12T06:53:14.087Z,12.68
2022-08-12T06:55:57.782Z,13.35
2022-08-12T06:58:27.415Z,12.23
2022-08-12T07:00:56.061Z,13.00
2022-08-12T07:03:28.012Z,14.50
2022-08-12T07:05:58.324Z,12.65
2022-08-12T07:08:29.070Z,11.88
2022-08-12T07:11:01.261Z,13.18
2022-08-12T07:13:30.926Z,11.50
2022-08-12T07:15:59.639Z,12.85
2022-08-12T07:18:32.904Z,11.13
2022-08-12T07:21:04.068Z,10.93
2022-08-12T07:23:33.509Z,12.63
2022-08-12T07:26:05.529Z,15.57
2022-08-12T07:28:37.022Z,11.88
2022-08-12T07:31:07.963Z,12.02
2022-08-12T07:33:39.450Z,11.75
2022-08-12T07:36:12.028Z,13.77
2022-08-12T07:38:43.785Z,9.88
2022-08-12T07:41:17.362Z,10.60
2022-08-12T07:43:47.933Z,9.05
2022-08-12T07:46:19.925Z,10.32
2022-08-12T07:48:49.991Z,8.77
2022-08-12T07:51:25.414Z,7.97
2022-08-12T07:54:03.262Z,8.20
2022-08-12T07:56:33.068Z,8.20
2022-08-12T07:59:01.481Z,8.50
2022-08-12T08:01:29.940Z,11.57
2022-08-12T08:04:19.054Z,7.25
2022-08-12T08:06:49.109Z,10.30
2022-08-12T08:09:21.249Z,6.30
2022-08-12T08:12:19.129Z,6.55
2022-08-12T08:14:50.138Z,7.13
2022-08-12T08:17:18.591Z,10.20
2022-08-12T08:20:03.606Z,8.32
2022-08-12T08:22:40.756Z,8.18
2022-08-12T08:25:35.683Z,6.68
2022-08-12T08:28:01.555Z,6.63
2022-08-12T08:30:30.690Z,6.40
2022-08-12T08:32:58.637Z,6.07
2022-08-12T08:35:31.218Z,6.05
2022-08-12T08:38:19.831Z,5.80
2022-08-12T08:42:15.531Z,5.70
2022-08-12T08:44:11.058Z,5.75
2022-08-12T08:46:39.853Z,6.70
2022-08-12T08:49:08.699Z,6.43
2022-08-12T08:51:37.357Z,5.40
2022-08-12T08:54:06.886Z,5.75
2022-08-12T08:56:36.280Z,5.00
2022-08-12T08:59:04.798Z,4.68
2022-08-12T09:01:37.194Z,4.65
2022-08-12T09:05:08.301Z,5.15
2022-08-12T09:06:56.701Z,5.28
2022-08-12T09:09:25.006Z,5.43
2022-08-12T09:12:54.304Z,4.60
2022-08-12T09:17:59.157Z,4.60
2022-08-12T09:20:30.579Z,4.47
2022-08-12T09:22:59.393Z,4.18
2022-08-12T09:25:33.577Z,4.22
2022-08-12T09:28:05.021Z,5.28
2022-08-12T09:30:42.281Z,4.32
2022-08-12T09:34:24.769Z,3.60
2022-08-12T09:36:04.984Z,3.97
2022-08-12T09:38:35.474Z,4.03
2022-08-12T09:42:33.503Z,6.63
2022-08-12T09:44:37.927Z,5.43
2022-08-12T09:47:03.079Z,4.55
2022-08-12T09:49:42.523Z,5.55
2022-08-12T09:52:15.614Z,5.38
2022-08-12T09:54:43.610Z,4.25
2022-08-12T09:58:44.655Z,5.93
2022-08-12T10:00:17.836Z,4.90
2022-08-12T10:03:01.331Z,5.07
2022-08-12T10:06:26.817Z,5.20
2022-08-12T10:08:22.494Z,5.18
2022-08-12T10:11:20.407Z,5.43
2022-08-12T10:13:51.418Z,4.63
2022-08-12T10:16:22.403Z,4.82
2022-08-12T10:18:54.646Z,4.55
2022-08-12T10:21:36.372Z,5.47
2022-08-12T10:24:07.257Z,4.60
2022-08-12T10:26:54.353Z,4.70
2022-08-12T10:30:37.781Z,4.32
2022-08-12T10:32:43.213Z,5.22
2022-08-12T10:35:15.777Z,4.78
2022-08-12T10:38:34.151Z,5.88
2022-08-12T10:40:55.403Z,6.50
2022-08-12T10:43:54.096Z,6.30
2022-08-12T10:46:30.576Z,6.88
2022-08-12T10:49:06.749Z,6.72
2022-08-12T10:52:31.157Z,4.45
2022-08-12T10:54:43.659Z,4.90
2022-08-12T10:58:12.515Z,7.18
2022-08-12T11:00:35.240Z,5.07
2022-08-12T11:04:18.688Z,5.03
2022-08-12T11:07:09.187Z,6.25
2022-08-12T11:08:43.626Z,6.03
2022-08-12T11:12:07.692Z,5.82
2022-08-12T11:14:06.305Z,5.22
2022-08-12T11:17:06.504Z,5.07
2022-08-12T11:19:46.372Z,4.78
2022-08-12T11:22:14.529Z,5.07
2022-08-12T11:24:42.533Z,4.90
2022-08-12T11:27:21.365Z,5.75
2022-08-12T11:30:06.426Z,5.28
2022-08-12T11:32:38.370Z,5.43
2022-08-12T11:35:08.331Z,5.20
2022-08-12T11:37:59.355Z,6.32
2022-08-12T11:40:26.626Z,7.60
2022-08-12T11:43:17.122Z,4.45
2022-08-12T11:45:47.207Z,5.25
2022-08-12T11:48:15.741Z,5.95
2022-08-12T11:50:44.540Z,6.18
2022-08-12T11:53:58.556Z,5.00
2022-08-12T11:56:00.641Z,6.60
2022-08-12T11:59:59.653Z,7.50
2022-08-12T12:02:03.066Z,5.40
2022-08-12T12:04:06.349Z,7.07
2022-08-12T12:06:38.382Z,5.55
2022-08-12T12:09:08.106Z,5.38
2022-08-12T12:11:48.745Z,5.40
2022-08-12T12:14:18.977Z,6.30
2022-08-12T12:17:09.201Z,6.00
2022-08-12T12:19:39.673Z,7.00
2022-08-12T12:22:15.700Z,6.53
2022-08-12T12:24:51.448Z,5.95
2022-08-12T12:28:03.876Z,11.88
2022-08-12T12:30:18.829Z,5.82
2022-08-12T12:32:58.310Z,5.70
2022-08-12T12:36:06.420Z,6.28
2022-08-12T12:38:16.233Z,5.65
2022-08-12T12:40:50.254Z,5.25
2022-08-12T12:43:29.043Z,5.22
2022-08-12T12:46:08.944Z,5.63
2022-08-12T12:48:38.830Z,6.53
2022-08-12T12:51:48.987Z,5.85
2022-08-12T12:54:10.013Z,7.45
2022-08-12T12:56:42.527Z,5.68
2022-08-12T12:59:54.394Z,6.45
2022-08-12T13:02:08.060Z,6.18
2022-08-12T13:04:37.650Z,8.20
2022-08-12T13:07:06.776Z,5.22
2022-08-12T13:09:35.908Z,5.13
2022-08-12T13:12:08.099Z,5.13
2022-08-12T13:14:39.894Z,5.40
2022-08-12T13:17:11.390Z,6.93
2022-08-12T13:19:48.254Z,5.30
2022-08-12T13:22:20.005Z,5.70
2022-08-12T13:24:54.785Z,5.85
2022-08-12T13:27:35.164Z,6.10
2022-08-12T13:30:07.002Z,5.00
2022-08-12T13:32:41.822Z,5.40
2022-08-12T13:35:20.420Z,5.80
2022-08-12T13:38:02.682Z,5.38
2022-08-12T13:40:33.700Z,5.70
2022-08-12T13:43:06.892Z,4.55
2022-08-12T13:45:36.851Z,6.10
2022-08-12T13:48:07.576Z,5.00
2022-08-12T13:50:37.498Z,5.18
2022-08-12T13:53:24.420Z,4.53
2022-08-12T13:55:59.731Z,4.30
2022-08-12T13:58:33.104Z,4.43
2022-08-12T14:01:06.362Z,7.03
2022-08-12T14:03:50.685Z,5.30
2022-08-12T14:06:26.014Z,4.35
2022-08-12T14:08:59.766Z,4.60
2022-08-12T14:11:47.930Z,4.60
2022-08-12T14:14:26.295Z,4.60
2022-08-12T14:16:55.247Z,5.07
2022-08-12T14:19:31.742Z,4.82
2022-08-12T14:22:04.947Z,6.25
2022-08-12T14:24:40.987Z,5.43
2022-08-12T14:27:10.930Z,5.50
2022-08-12T14:30:05.815Z,6.65
2022-08-12T14:32:35.327Z,5.20
2022-08-12T14:35:08.990Z,5.32
2022-08-12T14:37:54.971Z,4.70
2022-08-12T14:40:28.469Z,5.40
2022-08-12T14:42:58.037Z,4.63
2022-08-12T14:45:44.549Z,4.38
2022-08-12T14:48:15.363Z,4.95
2022-08-12T14:51:02.649Z,5.93
2022-08-12T14:59:57.877Z,6.15
2022-08-12T15:02:20.893Z,4.65
2022-08-12T15:04:58.716Z,5.15
2022-08-12T15:07:34.454Z,4.53
2022-08-12T15:10:13.408Z,5.05
2022-08-12T15:12:41.733Z,5.75
2022-08-12T15:15:11.268Z,4.63
2022-08-12T15:17:40.335Z,4.93
2022-08-12T15:20:28.661Z,4.30
2022-08-12T15:22:59.989Z,4.70
2022-08-12T15:25:28.645Z,5.43
2022-08-12T15:28:03.919Z,6.78
2022-08-12T15:30:37.215Z,4.40
2022-08-12T15:33:12.865Z,4.97
2022-08-12T15:35:52.287Z,5.07
2022-08-12T15:38:25.035Z,4.40
2022-08-12T15:40:55.134Z,4.57
2022-08-12T15:44:16.632Z,4.32
2022-08-12T15:46:15.336Z,4.28
2022-08-12T15:48:47.114Z,3.90
2022-08-12T15:51:58.567Z,4.45
2022-08-12T15:54:34.089Z,5.07
2022-08-12T15:57:08.026Z,4.85
2022-08-12T16:00:03.950Z,4.20
2022-08-12T16:02:29.300Z,4.38
2022-08-12T16:04:58.371Z,4.55
2022-08-12T16:07:39.509Z,4.32
2022-08-12T16:10:10.908Z,4.80
2022-08-12T16:12:43.256Z,4.30
2022-08-12T16:15:13.254Z,4.60
2022-08-12T16:18:18.433Z,4.80
2022-08-12T16:20:33.708Z,4.75
2022-08-12T16:23:21.442Z,4.80
2022-08-12T16:26:05.412Z,4.88
2022-08-12T16:28:34.656Z,5.20
2022-08-12T16:31:03.415Z,5.38
2022-08-12T16:33:59.207Z,5.45
2022-08-12T16:36:25.500Z,5.05
2022-08-12T16:38:53.675Z,5.22
2022-08-12T16:41:23.737Z,5.40
2022-08-12T16:43:53.448Z,5.53
2022-08-12T16:46:31.469Z,4.90
2022-08-12T16:49:04.159Z,5.35
2022-08-12T16:51:46.949Z,5.60
2022-08-12T16:54:17.242Z,5.10
2022-08-12T16:56:51.137Z,4.68
2022-08-12T16:59:53.575Z,5.07
2022-08-12T17:02:31.976Z,5.60
2022-08-12T17:05:04.705Z,6.20
2022-08-12T17:07:36.472Z,6.97
2022-08-12T17:10:07.119Z,6.13
2022-08-12T17:12:39.322Z,5.90
2022-08-12T17:15:50.707Z,5.45
2022-08-12T17:18:39.238Z,5.78
2022-08-12T17:20:48.422Z,6.85
2022-08-12T17:23:18.054Z,6.00
2022-08-12T17:25:50.291Z,7.22
2022-08-12T17:28:21.249Z,5.63
2022-08-12T17:31:00.092Z,5.78
2022-08-12T17:33:33.384Z,7.03
2022-08-12T17:36:05.775Z,7.60
2022-08-12T17:38:35.039Z,7.90
2022-08-12T17:41:08.275Z,10.93
2022-08-12T17:43:58.520Z,10.20
2022-08-12T17:46:33.746Z,7.75
2022-08-12T17:49:18.813Z,11.27
2022-08-12T17:52:02.913Z,9.80
2022-08-12T17:54:31.627Z,8.38
2022-08-12T17:57:02.512Z,8.93
2022-08-12T17:59:48.668Z,9.52
2022-08-12T18:02:25.646Z,6.97
2022-08-12T18:05:05.212Z,9.27
2022-08-12T18:07:39.539Z,7.07
2022-08-12T18:10:08.463Z,7.25
2022-08-12T18:12:42.743Z,8.27
2022-08-12T18:15:47.722Z,8.07
2022-08-12T18:18:16.625Z,8.38
2022-08-12T18:20:46.892Z,7.80
2022-08-12T18:23:14.930Z,8.32
2022-08-12T18:26:14.791Z,8.27
2022-08-12T18:28:48.341Z,11.10
2022-08-12T18:31:22.950Z,9.02
2022-08-12T18:33:53.279Z,7.90
2022-08-12T18:36:22.727Z,9.50
2022-08-12T18:38:56.076Z,9.07
2022-08-12T18:41:35.132Z,8.88
2022-08-12T18:44:09.260Z,10.70
2022-08-12T18:47:01.502Z,11.07
2022-08-12T18:49:38.838Z,10.02
2022-08-12T18:52:11.540Z,12.73
2022-08-12T18:54:49.070Z,14.38
2022-08-12T18:58:05.690Z,14.23
2022-08-12T19:00:21.315Z,12.82
2022-08-12T19:02:53.715Z,14.27
2022-08-12T19:05:54.362Z,11.68
2022-08-12T19:08:14.204Z,12.60
2022-08-12T19:10:50.378Z,10.55
2022-08-12T19:13:38.037Z,10.95
2022-08-12T19:16:10.764Z,10.40
2022-08-12T19:18:44.731Z,11.43
2022-08-12T19:21:16.253Z,11.10
2022-08-12T19:24:05.522Z,12.77
2022-08-12T19:26:34.469Z,11.57
2022-08-12T19:29:05.053Z,10.30
2022-08-12T19:31:57.473Z,11.10
2022-08-12T19:37:27.147Z,11.32
2022-08-12T19:40:20.458Z,11.02
2022-08-12T19:43:01.618Z,11.68
2022-08-12T19:45:42.406Z,12.55
2022-08-12T19:48:18.005Z,12.77
2022-08-12T19:50:50.183Z,12.57
2022-08-12T19:53:22.745Z,11.68
2022-08-12T19:55:53.860Z,15.43
2022-08-12T19:58:23.729Z,23.92
2022-08-12T20:00:54.374Z,26.73
2022-08-12T20:03:39.781Z,19.95
2022-08-12T20:06:15.839Z,18.02
2022-08-12T20:08:48.693Z,20.17
2022-08-12T20:12:09.715Z,19.63
2022-08-12T20:14:14.093Z,11.18
2022-08-12T20:16:51.646Z,15.55
2022-08-12T20:19:23.367Z,14.02
2022-08-12T20:21:54.940Z,14.65
2022-08-12T20:24:23.953Z,15.77
2022-08-12T20:27:00.235Z,13.88
2022-08-12T20:29:35.711Z,14.98
2022-08-12T20:32:06.028Z,10.32
2022-08-12T20:34:39.031Z,10.10
2022-08-12T20:37:10.285Z,9.23
2022-08-12T20:39:52.827Z,10.50
2022-08-12T20:42:24.421Z,9.50
2022-08-12T20:44:59.630Z,10.75
2022-08-12T20:47:46.838Z,11.55
2022-08-12T20:50:15.988Z,12.15
2022-08-12T20:52:49.390Z,12.60
2022-08-12T20:55:19.465Z,12.35
2022-08-12T20:58:02.733Z,12.25
2022-08-12T21:00:33.269Z,10.82
2022-08-12T21:03:21.184Z,14.07
2022-08-12T21:06:13.557Z,11.73
2022-08-12T21:08:43.965Z,14.15
2022-08-12T21:11:12.011Z,11.82
2022-08-12T21:13:41.795Z,11.35
2022-08-12T21:16:10.538Z,11.20
2022-08-12T21:18:39.512Z,11.75
2022-08-12T21:21:24.086Z,11.60
2022-08-12T21:23:59.011Z,11.45
2022-08-12T21:26:28.092Z,11.30
2022-08-12T21:29:01.165Z,11.88
2022-08-12T21:32:39.826Z,12.65
2022-08-12T21:34:25.974Z,13.95
2022-08-12T21:37:01.793Z,14.45
2022-08-12T21:39:52.359Z,22.88
2022-08-12T21:42:20.985Z,12.45
2022-08-12T21:45:45.888Z,10.35
2022-08-12T21:47:43.784Z,10.65
2022-08-12T21:50:15.395Z,10.60
2022-08-12T21:52:43.394Z,10.40
2022-08-12T21:55:20.362Z,12.63
2022-08-12T21:57:53.788Z,10.80
2022-08-12T22:00:32.584Z,11.77
2022-08-12T22:04:01.585Z,9.35
2022-08-12T22:06:31.768Z,8.27
2022-08-12T22:09:15.285Z,9.25
2022-08-12T22:11:56.721Z,8.63
2022-08-12T22:14:28.125Z,7.68
2022-08-12T22:16:58.622Z,7.97
2022-08-12T22:19:28.621Z,7.10
2022-08-12T22:21:58.432Z,7.43
2022-08-12T22:24:30.348Z,6.97
2022-08-12T22:27:08.020Z,7.03
2022-08-12T22:30:07.618Z,7.40
2022-08-12T22:32:41.913Z,7.77
2022-08-12T22:35:29.201Z,7.00
2022-08-12T22:37:58.850Z,6.63
2022-08-12T22:40:26.734Z,6.95
2022-08-12T22:43:14.581Z,6.65
2022-08-12T22:46:01.223Z,6.77
2022-08-12T22:48:29.167Z,7.07
2022-08-12T22:50:59.240Z,7.45
2022-08-12T22:53:35.859Z,8.27
2022-08-12T22:56:08.013Z,8.02
2022-08-12T22:58:40.800Z,7.40
2022-08-12T23:01:13.687Z,8.30
2022-08-12T23:03:51.110Z,7.50
2022-08-12T23:06:25.219Z,7.63
2022-08-12T23:08:56.287Z,8.00
2022-08-12T23:11:25.584Z,8.33
2022-08-12T23:14:04.316Z,8.30
2022-08-12T23:16:34.161Z,7.70
2022-08-12T23:19:09.592Z,8.03
2022-08-12T23:22:04.278Z,7.83
2022-08-12T23:24:26.794Z,8.50
2022-08-12T23:27:44.390Z,8.03
2022-08-12T23:30:19.121Z,8.07
2022-08-12T23:33:00.119Z,7.87
2022-08-12T23:35:45.686Z,8.07
2022-08-12T23:38:30.704Z,8.53
2022-08-12T23:41:01.275Z,8.97
2022-08-12T23:43:39.112Z,8.13
2022-08-12T23:46:10.572Z,7.80
2022-08-12T23:48:40.006Z,7.47
2022-08-12T23:51:23.333Z,7.50
2022-08-12T23:53:55.291Z,8.60
2022-08-12T23:56:25.227Z,7.30
2022-08-12T23:58:57.517Z,8.40
